Time;durP1;ratioP1;P1;durP2;ratioP2;P2;SDS_P1;SDS_P2;PMS_P1;PMS_P2;Temp;Humidity;BMP_temperature;BMP_pressure;BME280_temperature;BME280_humidity;BME280_pressure;Samples;Min_cycle;Max_cycle;Signal;HPM_P1;HPM_P2
2021/11/20 00:00:55;;;;;;;73.75;11.77;;;;;;;;;;5013707;28;20053;-41
2021/11/20 00:03:22;;;;;;;75.82;9.60;;;;;;;;;;5016791;28;20022;-42
2021/11/20 00:05:51;;;;;;;64.90;9.05;;;;;;;;;;5020819;28;21423;-40
2021/11/20 00:08:18;;;;;;;61.50;9.23;;;;;;;;;;5015444;28;20393;-41
2021/11/20 00:10:47;;;;;;;69.47;10.02;;;;;;;;;;5015745;28;20486;-39
2021/11/20 00:13:15;;;;;;;65.18;9.02;;;;;;;;;;5014897;28;20026;-40
2021/11/20 00:15:43;;;;;;;69.57;10.07;;;;;;;;;;5012902;28;20493;-40
2021/11/20 00:18:11;;;;;;;67.90;9.90;;;;;;;;;;5016825;28;20026;-40
2021/11/20 00:20:45;;;;;;;86.53;10.23;;;;;;;;;;5017119;28;20029;-40
2021/11/20 00:23:13;;;;;;;88.88;12.05;;;;;;;;;;5012974;28;20033;-40
2021/11/20 00:25:59;;;;;;;84.28;10.52;;;;;;;;;;5015143;28;20127;-40
2021/11/20 00:28:39;;;;;;;81.63;11.20;;;;;;;;;;5012638;28;20026;-40
2021/11/20 00:31:06;;;;;;;81.70;11.02;;;;;;;;;;5013535;28;20018;-40
2021/11/20 00:33:34;;;;;;;81.47;11.13;;;;;;;;;;5013078;28;20049;-41
2021/11/20 00:36:02;;;;;;;84.35;12.68;;;;;;;;;;5015175;28;20028;-40
2021/11/20 00:38:30;;;;;;;93.28;12.00;;;;;;;;;;5013191;28;20034;-40
2021/11/20 00:40:59;;;;;;;84.50;10.68;;;;;;;;;;5020740;28;20026;-42
2021/11/20 00:43:27;;;;;;;81.53;12.00;;;;;;;;;;5019375;28;20025;-43
2021/11/20 00:45:54;;;;;;;89.28;12.05;;;;;;;;;;5012792;28;20112;-41
2021/11/20 00:48:23;;;;;;;80.18;10.48;;;;;;;;;;5012839;28;20022;-42
2021/11/20 00:50:52;;;;;;;75.35;10.85;;;;;;;;;;5015487;28;20026;-42
2021/11/20 00:53:19;;;;;;;82.70;10.18;;;;;;;;;;5015882;28;20104;-41
2021/11/20 00:55:46;;;;;;;74.18;10.40;;;;;;;;;;5028645;28;20060;-40
2021/11/20 00:58:13;;;;;;;72.80;10.40;;;;;;;;;;5012989;28;20033;-41
2021/11/20 01:00:45;;;;;;;80.57;10.95;;;;;;;;;;5012906;28;20466;-41
2021/11/20 01:03:12;;;;;;;;;;;;;;;;;;5013942;28;20029;-43
2021/11/20 01:05:39;;;;;;;73.63;11.38;;;;;;;;;;5013674;28;19936;-43
2021/11/20 01:08:07;;;;;;;86.05;13.32;;;;;;;;;;5013387;28;20025;-44
2021/11/20 01:10:35;;;;;;;74.32;12.20;;;;;;;;;;5013640;28;20021;-44
2021/11/20 01:13:03;;;;;;;85.68;10.65;;;;;;;;;;5013254;28;20057;-45
2021/11/20 01:15:33;;;;;;;78.63;10.25;;;;;;;;;;5012962;28;20076;-43
2021/11/20 01:18:00;;;;;;;88.88;12.27;;;;;;;;;;5013268;28;20481;-45
2021/11/20 01:20:27;;;;;;;72.25;10.43;;;;;;;;;;5012815;28;20026;-43
2021/11/20 01:22:54;;;;;;;76.97;11.30;;;;;;;;;;5012852;28;20382;-44
2021/11/20 01:25:21;;;;;;;87.20;13.48;;;;;;;;;;5013138;28;20101;-41
2021/11/20 01:27:48;;;;;;;85.28;12.55;;;;;;;;;;5012351;28;20037;-44
2021/11/20 01:30:16;;;;;;;78.47;11.55;;;;;;;;;;5012229;28;20026;-43
2021/11/20 01:32:43;;;;;;;72.07;12.32;;;;;;;;;;5013243;28;20034;-42
2021/11/20 01:35:10;;;;;;;99.38;12.65;;;;;;;;;;5012678;28;20018;-42
2021/11/20 01:37:38;;;;;;;93.68;12.07;;;;;;;;;;5016897;28;20025;-43
2021/11/20 01:40:10;;;;;;;81.40;12.07;;;;;;;;;;5014025;28;20539;-41
2021/11/20 01:42:37;;;;;;;68.70;9.97;;;;;;;;;;5021193;28;20021;-42
2021/11/20 01:45:10;;;;;;;77.30;12.48;;;;;;;;;;5021554;28;20057;-42
2021/11/20 01:47:46;;;;;;;62.95;9.95;;;;;;;;;;5020838;28;20469;-43
2021/11/20 01:50:16;;;;;;;58.47;8.73;;;;;;;;;;5023566;28;20033;-42
2021/11/20 01:52:57;;;;;;;59.47;9.95;;;;;;;;;;5024435;28;20441;-43
2021/11/20 01:55:32;;;;;;;63.60;9.70;;;;;;;;;;5015839;28;20026;-42
2021/11/20 01:58:06;;;;;;;54.92;9.65;;;;;;;;;;5012322;28;20062;-40
2021/11/20 02:00:40;;;;;;;56.90;8.75;;;;;;;;;;5012042;28;20040;-40
2021/11/20 02:03:10;;;;;;;45.95;8.57;;;;;;;;;;5011732;28;20114;-42
2021/11/20 02:05:38;;;;;;;68.72;9.90;;;;;;;;;;5011153;28;20026;-43
2021/11/20 02:08:13;;;;;;;58.00;9.20;;;;;;;;;;5012135;28;20083;-41
2021/11/20 02:10:45;;;;;;;63.80;9.32;;;;;;;;;;5021922;28;20104;-43
2021/11/20 02:13:13;;;;;;;46.67;8.93;;;;;;;;;;5011234;28;20038;-43
2021/11/20 02:15:49;;;;;;;45.58;8.27;;;;;;;;;;5028574;28;20373;-43
2021/11/20 02:18:17;;;;;;;60.80;8.80;;;;;;;;;;5030243;28;20029;-44
2021/11/20 02:20:51;;;;;;;52.13;7.78;;;;;;;;;;5016610;28;20018;-41
2021/11/20 02:23:18;;;;;;;51.35;8.13;;;;;;;;;;5019731;28;20033;-43
2021/11/20 02:25:44;;;;;;;69.28;8.75;;;;;;;;;;5021017;28;20048;-40
2021/11/20 02:28:12;;;;;;;50.55;9.30;;;;;;;;;;5013929;28;20045;-39
2021/11/20 02:30:40;;;;;;;47.83;7.10;;;;;;;;;;5010062;28;20097;-40
2021/11/20 02:33:11;;;;;;;63.15;8.27;;;;;;;;;;5009687;28;20040;-39
2021/11/20 02:35:46;;;;;;;46.50;7.70;;;;;;;;;;5009601;28;20056;-39
2021/11/20 02:38:22;;;;;;;43.10;7.75;;;;;;;;;;5010324;28;20072;-41
2021/11/20 02:40:50;;;;;;;42.33;7.10;;;;;;;;;;5012098;28;20100;-42
2021/11/20 02:43:21;;;;;;;34.53;7.15;;;;;;;;;;5016045;28;20065;-40
2021/11/20 02:45:53;;;;;;;41.97;7.00;;;;;;;;;;5016220;28;20037;-41
2021/11/20 02:48:20;;;;;;;38.70;5.65;;;;;;;;;;5011630;28;20497;-40
2021/11/20 02:50:54;;;;;;;35.03;6.75;;;;;;;;;;5012107;28;20076;-42
2021/11/20 02:53:29;;;;;;;37.03;6.43;;;;;;;;;;5012060;28;20041;-40
2021/11/20 02:55:57;;;;;;;39.60;6.13;;;;;;;;;;5011908;28;20018;-40
2021/11/20 02:58:26;;;;;;;32.70;6.20;;;;;;;;;;5011606;28;20041;-40
2021/11/20 03:00:57;;;;;;;48.03;6.88;;;;;;;;;;5018427;28;20064;-41
2021/11/20 03:03:25;;;;;;;34.80;5.50;;;;;;;;;;5029469;28;20026;-41
2021/11/20 03:05:52;;;;;;;35.47;6.88;;;;;;;;;;5014463;28;20393;-39
2021/11/20 03:08:20;;;;;;;33.97;6.05;;;;;;;;;;5012319;28;20027;-41
2021/11/20 03:10:49;;;;;;;28.90;5.97;;;;;;;;;;5017495;28;20074;-39
2021/11/20 03:13:18;;;;;;;31.55;6.45;;;;;;;;;;5021457;28;20033;-39
2021/11/20 03:15:46;;;;;;;29.15;5.63;;;;;;;;;;5030229;28;20021;-39
2021/11/20 03:18:14;;;;;;;36.80;5.30;;;;;;;;;;5026333;28;20088;-39
2021/11/20 03:20:43;;;;;;;31.23;5.68;;;;;;;;;;5030350;28;20105;-38
2021/11/20 03:23:24;;;;;;;28.02;5.30;;;;;;;;;;5027632;28;20104;-41
2021/11/20 03:25:53;;;;;;;25.83;5.03;;;;;;;;;;4991734;28;20394;-40
2021/11/20 03:28:21;;;;;;;32.78;6.25;;;;;;;;;;4994553;28;20030;-39
2021/11/20 03:30:50;;;;;;;26.25;5.07;;;;;;;;;;4986975;28;20037;-40
2021/11/20 03:33:18;;;;;;;26.55;5.03;;;;;;;;;;4986410;28;20038;-40
2021/11/20 03:35:46;;;;;;;23.73;5.35;;;;;;;;;;4989404;28;20030;-40
2021/11/20 03:38:14;;;;;;;27.08;5.07;;;;;;;;;;4989846;28;20161;-40
2021/11/20 03:40:42;;;;;;;25.50;5.22;;;;;;;;;;4989843;28;20041;-40
2021/11/20 03:43:10;;;;;;;27.83;4.07;;;;;;;;;;4990528;28;20026;-41
2021/11/20 03:45:38;;;;;;;25.98;4.30;;;;;;;;;;4993049;28;20023;-41
2021/11/20 03:48:06;;;;;;;24.00;4.97;;;;;;;;;;4995556;28;20026;-42
2021/11/20 03:50:33;;;;;;;27.55;5.15;;;;;;;;;;4995411;28;20033;-39
2021/11/20 03:53:01;;;;;;;29.45;5.10;;;;;;;;;;4995860;28;20058;-40
2021/11/20 03:55:30;;;;;;;26.77;5.60;;;;;;;;;;4995501;28;20093;-39
2021/11/20 03:57:57;;;;;;;24.73;4.60;;;;;;;;;;4995558;28;20033;-39
2021/11/20 04:00:27;;;;;;;23.50;5.03;;;;;;;;;;4995813;28;20093;-40
2021/11/20 04:02:54;;;;;;;24.25;3.75;;;;;;;;;;4991240;28;20023;-40
2021/11/20 04:05:22;;;;;;;20.27;4.07;;;;;;;;;;4975810;28;20027;-40
2021/11/20 04:07:50;;;;;;;16.70;3.88;;;;;;;;;;4975055;28;20037;-40
2021/11/20 04:10:18;;;;;;;21.45;3.58;;;;;;;;;;4976142;28;20097;-41
2021/11/20 04:12:45;;;;;;;19.88;3.90;;;;;;;;;;4975773;28;20084;-40
2021/11/20 04:15:14;;;;;;;22.20;4.88;;;;;;;;;;4975907;28;20447;-43
2021/11/20 04:17:41;;;;;;;16.48;3.50;;;;;;;;;;4975600;28;20135;-42
2021/11/20 04:20:10;;;;;;;17.13;4.20;;;;;;;;;;4976040;28;20102;-41
2021/11/20 04:22:38;;;;;;;21.65;3.70;;;;;;;;;;4975636;28;20023;-43
2021/11/20 04:25:07;;;;;;;20.30;4.15;;;;;;;;;;5005058;28;20129;-44
2021/11/20 04:27:34;;;;;;;16.00;3.55;;;;;;;;;;5014822;28;20033;-42
2021/11/20 04:30:02;;;;;;;20.00;4.30;;;;;;;;;;5014842;28;20105;-44
2021/11/20 04:32:29;;;;;;;20.38;4.32;;;;;;;;;;5014771;28;20038;-44
2021/11/20 04:34:55;;;;;;;18.15;3.65;;;;;;;;;;5014381;28;20097;-42
2021/11/20 04:37:22;;;;;;;16.60;3.95;;;;;;;;;;5014848;28;20026;-42
2021/11/20 04:39:49;;;;;;;13.10;3.40;;;;;;;;;;5014978;28;20432;-41
2021/11/20 04:42:19;;;;;;;14.38;3.28;;;;;;;;;;5014599;28;20072;-43
2021/11/20 04:44:46;;;;;;;20.85;3.80;;;;;;;;;;5014628;28;20022;-41
2021/11/20 04:47:13;;;;;;;21.58;4.13;;;;;;;;;;5014772;28;20030;-41
2021/11/20 04:49:40;;;;;;;17.90;3.20;;;;;;;;;;5014360;28;20533;-41
2021/11/20 04:52:07;;;;;;;19.02;4.15;;;;;;;;;;5014582;28;20449;-41
2021/11/20 04:54:35;;;;;;;15.57;3.45;;;;;;;;;;5014206;28;20045;-41
2021/11/20 04:57:02;;;;;;;11.90;3.00;;;;;;;;;;5013535;28;20034;-40
2021/11/20 04:59:29;;;;;;;14.48;2.97;;;;;;;;;;5013438;28;20026;-40
2021/11/20 05:01:56;;;;;;;15.30;3.47;;;;;;;;;;5013378;28;20550;-42
2021/11/20 05:04:23;;;;;;;13.93;2.60;;;;;;;;;;5191876;22;20057;-41
2021/11/20 05:06:50;;;;;;;11.77;2.92;;;;;;;;;;5032010;28;20021;-41
2021/11/20 05:09:17;;;;;;;11.02;3.25;;;;;;;;;;5032243;28;20082;-41
2021/11/20 05:11:45;;;;;;;12.38;3.13;;;;;;;;;;5031821;28;20026;-41
2021/11/20 05:14:12;;;;;;;14.93;3.05;;;;;;;;;;5031766;28;20028;-41
2021/11/20 05:16:39;;;;;;;13.02;2.88;;;;;;;;;;5014261;28;20025;-42
2021/11/20 05:19:07;;;;;;;14.27;3.35;;;;;;;;;;5031748;28;20711;-41
2021/11/20 05:21:34;;;;;;;18.20;3.35;;;;;;;;;;5031710;28;20384;-41
2021/11/20 05:24:01;;;;;;;16.58;3.03;;;;;;;;;;5031172;28;20014;-40
2021/11/20 05:26:28;;;;;;;9.65;2.85;;;;;;;;;;5030750;28;20021;-40
2021/11/20 05:29:04;;;;;;;11.00;2.95;;;;;;;;;;5031455;28;20022;-40
2021/11/20 05:31:32;;;;;;;10.90;2.63;;;;;;;;;;5031333;28;20031;-40
2021/11/20 05:33:59;;;;;;;12.63;3.28;;;;;;;;;;5031262;28;20033;-41
2021/11/20 05:36:30;;;;;;;12.73;2.75;;;;;;;;;;5031218;28;20017;-39
2021/11/20 05:38:58;;;;;;;11.52;2.50;;;;;;;;;;5031221;28;20477;-41
2021/11/20 05:41:25;;;;;;;12.77;2.70;;;;;;;;;;5013316;28;20028;-42
2021/11/20 05:43:53;;;;;;;10.43;2.90;;;;;;;;;;5031229;28;20550;-40
2021/11/20 05:46:21;;;;;;;7.68;2.55;;;;;;;;;;5030523;28;20017;-41
2021/11/20 05:48:47;;;;;;;12.75;2.70;;;;;;;;;;5031696;28;20076;-42
2021/11/20 05:51:15;;;;;;;8.40;2.55;;;;;;;;;;5032793;28;20373;-42
2021/11/20 05:53:42;;;;;;;10.00;3.00;;;;;;;;;;5031963;28;20036;-42
2021/11/20 05:56:09;;;;;;;14.68;3.05;;;;;;;;;;5032959;28;20037;-43
2021/11/20 05:58:36;;;;;;;10.55;2.55;;;;;;;;;;5032793;28;20020;-43
2021/11/20 06:01:05;;;;;;;11.73;2.97;;;;;;;;;;5033087;28;20091;-41
2021/11/20 06:03:32;;;;;;;9.90;2.70;;;;;;;;;;5023914;28;20374;-42
2021/11/20 06:05:59;;;;;;;11.43;2.72;;;;;;;;;;5012667;28;20030;-43
2021/11/20 06:08:26;;;;;;;11.35;2.60;;;;;;;;;;5012909;28;20025;-41
2021/11/20 06:10:54;;;;;;;16.33;3.03;;;;;;;;;;5013043;28;20022;-42
2021/11/20 06:13:22;;;;;;;8.48;2.13;;;;;;;;;;4995130;28;20084;-41
2021/11/20 06:15:53;;;;;;;9.50;2.47;;;;;;;;;;5012809;28;20033;-40
2021/11/20 06:18:21;;;;;;;16.58;2.72;;;;;;;;;;5012915;28;20021;-40
2021/11/20 06:20:49;;;;;;;11.60;2.60;;;;;;;;;;5012974;28;20351;-42
2021/11/20 06:23:17;;;;;;;9.15;2.30;;;;;;;;;;5012494;28;20486;-41
2021/11/20 06:25:44;;;;;;;8.55;2.58;;;;;;;;;;5012576;28;20026;-41
2021/11/20 06:28:11;;;;;;;12.63;3.08;;;;;;;;;;5012826;28;20442;-42
2021/11/20 06:30:38;;;;;;;6.45;2.28;;;;;;;;;;5012555;28;20381;-41
2021/11/20 06:33:05;;;;;;;9.23;2.10;;;;;;;;;;5012528;28;20117;-41
2021/11/20 06:35:33;;;;;;;8.55;2.53;;;;;;;;;;5012672;28;20053;-41
2021/11/20 06:38:01;;;;;;;7.55;2.20;;;;;;;;;;5012492;28;20378;-40
2021/11/20 06:40:32;;;;;;;9.18;2.17;;;;;;;;;;5012473;28;20029;-42
2021/11/20 06:42:59;;;;;;;7.05;2.10;;;;;;;;;;5012629;28;20076;-41
2021/11/20 06:45:28;;;;;;;6.72;2.17;;;;;;;;;;5012395;28;20025;-41
2021/11/20 06:47:56;;;;;;;9.50;2.78;;;;;;;;;;5012437;28;20021;-41
2021/11/20 06:50:23;;;;;;;9.73;2.33;;;;;;;;;;5012667;28;20512;-42
2021/11/20 06:52:50;;;;;;;6.13;2.15;;;;;;;;;;5012205;28;20033;-42
2021/11/20 06:55:18;;;;;;;7.22;2.30;;;;;;;;;;5012437;28;20076;-42
2021/11/20 07:00:26;;;;;;;12.82;2.53;;;;;;;;;;5016239;28;20026;-43
2021/11/20 07:03:02;;;;;;;5.43;1.73;;;;;;;;;;5016014;28;20406;-43
2021/11/20 07:05:31;;;;;;;12.25;2.20;;;;;;;;;;5016264;28;20030;-42
2021/11/20 07:07:59;;;;;;;8.45;2.20;;;;;;;;;;5016244;28;20504;-43
2021/11/20 07:10:27;;;;;;;10.43;2.03;;;;;;;;;;5016370;28;20041;-43
2021/11/20 07:12:55;;;;;;;6.55;1.95;;;;;;;;;;5016006;28;20180;-42
2021/11/20 07:15:23;;;;;;;8.90;2.13;;;;;;;;;;5016045;28;20022;-42
2021/11/20 07:17:50;;;;;;;9.93;2.17;;;;;;;;;;5016170;28;20133;-42
2021/11/20 07:20:18;;;;;;;7.90;2.08;;;;;;;;;;5016014;28;20026;-42
2021/11/20 07:22:45;;;;;;;6.90;1.98;;;;;;;;;;5015892;28;20128;-43
2021/11/20 07:25:12;;;;;;;7.88;1.95;;;;;;;;;;5016048;28;20018;-44
2021/11/20 07:27:39;;;;;;;8.23;2.28;;;;;;;;;;5015838;28;20080;-45
2021/11/20 07:30:09;;;;;;;7.50;1.95;;;;;;;;;;5014798;28;20036;-42
2021/11/20 07:32:36;;;;;;;8.15;2.30;;;;;;;;;;5015691;28;20033;-42
2021/11/20 07:35:03;;;;;;;7.30;1.80;;;;;;;;;;5015633;28;20076;-45
2021/11/20 07:37:30;;;;;;;6.05;1.80;;;;;;;;;;5015779;28;20052;-42
2021/11/20 07:39:58;;;;;;;7.20;1.90;;;;;;;;;;5015727;28;20080;-41
2021/11/20 07:42:25;;;;;;;7.57;1.75;;;;;;;;;;5015673;28;20113;-42
2021/11/20 07:44:52;;;;;;;8.40;1.75;;;;;;;;;;5015485;28;20022;-43
2021/11/20 07:47:19;;;;;;;7.05;2.13;;;;;;;;;;5015554;28;20428;-43
2021/11/20 07:49:47;;;;;;;7.63;1.90;;;;;;;;;;5015664;28;20026;-41
2021/11/20 07:52:14;;;;;;;8.75;2.30;;;;;;;;;;5015218;28;20034;-41
2021/11/20 07:54:41;;;;;;;5.40;1.85;;;;;;;;;;5015368;28;20023;-43
2021/11/20 07:57:08;;;;;;;5.47;1.60;;;;;;;;;;5015574;28;20021;-46
2021/11/20 07:59:36;;;;;;;6.68;1.50;;;;;;;;;;4997656;28;20030;-41
2021/11/20 08:02:03;;;;;;;5.70;1.60;;;;;;;;;;5015080;28;20026;-43
2021/11/20 08:04:30;;;;;;;6.72;1.70;;;;;;;;;;5014881;28;20053;-44
2021/11/20 08:06:57;;;;;;;4.60;1.65;;;;;;;;;;5014890;28;20397;-41
2021/11/20 08:09:24;;;;;;;6.55;1.75;;;;;;;;;;5014351;28;20156;-41
2021/11/20 08:11:52;;;;;;;9.20;1.60;;;;;;;;;;5015145;28;20033;-43
2021/11/20 08:14:21;;;;;;;7.32;1.67;;;;;;;;;;5014778;28;20034;-41
2021/11/20 08:16:48;;;;;;;5.00;1.70;;;;;;;;;;5014617;28;20164;-41
2021/11/20 08:19:16;;;;;;;4.38;1.38;;;;;;;;;;5014941;28;20081;-42
2021/11/20 08:21:43;;;;;;;7.43;2.13;;;;;;;;;;5014759;28;20032;-44
2021/11/20 08:24:11;;;;;;;6.80;1.67;;;;;;;;;;5014679;28;20022;-42
2021/11/20 08:26:39;;;;;;;6.68;1.60;;;;;;;;;;4997222;28;20026;-43
2021/11/20 08:29:11;;;;;;;8.55;1.35;;;;;;;;;;4997179;28;20026;-43
2021/11/20 08:31:41;;;;;;;8.00;1.60;;;;;;;;;;5014694;28;20065;-43
2021/11/20 08:34:08;;;;;;;6.22;1.70;;;;;;;;;;5014592;28;20034;-44
2021/11/20 08:36:36;;;;;;;10.27;1.63;;;;;;;;;;5014681;28;20097;-41
2021/11/20 08:39:03;;;;;;;6.00;1.80;;;;;;;;;;5014275;28;20105;-41
2021/11/20 08:41:30;;;;;;;5.65;1.40;;;;;;;;;;5014253;28;20033;-42
2021/11/20 08:43:57;;;;;;;6.15;1.50;;;;;;;;;;5014490;28;20026;-43
2021/11/20 08:46:25;;;;;;;6.20;1.60;;;;;;;;;;5014131;28;20037;-41
2021/11/20 08:48:52;;;;;;;7.90;1.50;;;;;;;;;;5014398;28;20025;-43
2021/11/20 08:51:21;;;;;;;4.63;1.48;;;;;;;;;;5014474;28;20033;-43
2021/11/20 08:53:49;;;;;;;7.00;1.98;;;;;;;;;;5014103;28;20030;-41
2021/11/20 08:56:16;;;;;;;6.32;1.58;;;;;;;;;;5014267;28;20021;-42
2021/11/20 08:58:43;;;;;;;7.00;1.75;;;;;;;;;;5014223;28;20494;-41
2021/11/20 09:01:15;;;;;;;7.97;2.40;;;;;;;;;;5013876;28;20081;-42
2021/11/20 09:03:46;;;;;;;5.72;1.45;;;;;;;;;;5013802;28;20064;-41
2021/11/20 09:06:15;;;;;;;4.25;1.30;;;;;;;;;;5014140;28;20033;-42
2021/11/20 09:09:01;;;;;;;5.05;1.60;;;;;;;;;;5014203;28;20029;-42
2021/11/20 09:11:34;;;;;;;4.82;1.27;;;;;;;;;;5013816;28;20037;-43
2021/11/20 09:14:04;;;;;;;6.07;1.73;;;;;;;;;;5013825;28;20359;-43
2021/11/20 09:16:33;;;;;;;7.80;1.50;;;;;;;;;;4996302;28;20018;-41
2021/11/20 09:19:01;;;;;;;7.78;1.40;;;;;;;;;;5013523;28;20025;-42
2021/11/20 09:21:29;;;;;;;6.32;1.40;;;;;;;;;;5013129;28;20018;-41
2021/11/20 09:23:57;;;;;;;6.03;1.60;;;;;;;;;;5013648;28;20028;-41
2021/11/20 09:26:23;;;;;;;4.28;1.42;;;;;;;;;;5013557;28;20022;-41
2021/11/20 09:28:50;;;;;;;5.07;1.35;;;;;;;;;;4996132;28;20362;-41
2021/11/20 09:31:19;;;;;;;4.90;1.33;;;;;;;;;;5013555;28;20068;-42
2021/11/20 09:33:46;;;;;;;5.57;1.50;;;;;;;;;;5013588;28;20035;-40
2021/11/20 09:36:13;;;;;;;9.63;1.60;;;;;;;;;;5013691;28;20022;-42
2021/11/20 09:38:40;;;;;;;4.60;1.25;;;;;;;;;;5013226;28;20026;-41
2021/11/20 09:41:11;;;;;;;4.47;1.30;;;;;;;;;;5013438;28;20018;-42
2021/11/20 09:43:40;;;;;;;5.95;1.33;;;;;;;;;;5013563;28;20018;-43
2021/11/20 09:46:16;;;;;;;6.13;1.48;;;;;;;;;;5013392;28;20022;-44
2021/11/20 09:48:49;;;;;;;8.85;1.52;;;;;;;;;;5013356;28;20029;-44
2021/11/20 09:51:23;;;;;;;4.97;1.60;;;;;;;;;;5013189;28;20486;-45
2021/11/20 09:53:50;;;;;;;6.88;1.63;;;;;;;;;;5013155;28;20034;-45
2021/11/20 09:56:21;;;;;;;4.22;1.20;;;;;;;;;;5013022;28;20029;-44
2021/11/20 09:58:51;;;;;;;3.40;1.08;;;;;;;;;;5012838;28;20030;-43
2021/11/20 10:01:18;;;;;;;5.45;1.40;;;;;;;;;;5012942;28;20470;-44
2021/11/20 10:03:51;;;;;;;7.10;1.27;;;;;;;;;;5012752;28;20528;-41
2021/11/20 10:06:21;;;;;;;6.03;1.52;;;;;;;;;;5012835;28;20034;-46
2021/11/20 10:08:48;;;;;;;5.15;1.13;;;;;;;;;;5012789;28;20441;-43
2021/11/20 10:11:15;;;;;;;4.35;1.50;;;;;;;;;;5012992;28;20142;-43
2021/11/20 10:13:57;;;;;;;5.75;1.52;;;;;;;;;;5012832;28;20018;-43
2021/11/20 10:16:27;;;;;;;3.72;1.15;;;;;;;;;;5012566;28;20022;-41
2021/11/20 10:19:20;;;;;;;6.25;1.33;;;;;;;;;;5012697;28;20022;-43
2021/11/20 10:21:46;;;;;;;;;;;;;;;;;;5009786;28;20436;-43
2021/11/20 10:24:16;;;;;;;4.43;1.40;;;;;;;;;;5012713;28;19959;-41
2021/11/20 10:27:01;;;;;;;6.30;1.52;;;;;;;;;;5012840;28;20033;-42
2021/11/20 10:29:34;;;;;;;7.25;1.60;;;;;;;;;;5012774;28;20013;-43
2021/11/20 10:32:21;;;;;;;4.75;1.90;;;;;;;;;;5012226;28;20018;-41
2021/11/20 10:34:59;;;;;;;6.80;1.20;;;;;;;;;;5012767;28;20022;-42
2021/11/20 10:37:28;;;;;;;3.55;1.20;;;;;;;;;;5012417;28;20065;-43
2021/11/20 10:39:59;;;;;;;3.78;1.25;;;;;;;;;;5012586;28;20093;-40
2021/11/20 10:42:32;;;;;;;5.50;1.10;;;;;;;;;;5012450;28;20026;-47
2021/11/20 10:45:08;;;;;;;6.68;1.40;;;;;;;;;;5012702;28;20022;-42
2021/11/20 10:47:39;;;;;;;5.55;1.25;;;;;;;;;;5012383;28;20021;-41
2021/11/20 10:50:24;;;;;;;6.05;1.20;;;;;;;;;;5011517;28;20873;-45
2021/11/20 10:52:58;;;;;;;5.88;1.15;;;;;;;;;;5012138;28;20068;-41
2021/11/20 10:55:31;;;;;;;5.70;1.20;;;;;;;;;;5012511;28;20032;-43
2021/11/20 10:58:16;;;;;;;10.05;1.42;;;;;;;;;;5012603;28;20022;-43
2021/11/20 11:01:01;;;;;;;6.78;0.95;;;;;;;;;;5012426;28;20034;-41
2021/11/20 11:03:38;;;;;;;4.68;1.50;;;;;;;;;;4992530;28;20042;-43
2021/11/20 11:06:12;;;;;;;6.65;1.30;;;;;;;;;;4992777;28;20169;-41
2021/11/20 11:08:44;;;;;;;4.07;1.20;;;;;;;;;;4992659;28;20478;-44
2021/11/20 11:11:11;;;;;;;5.22;1.20;;;;;;;;;;4992535;28;20038;-43
2021/11/20 11:14:08;;;;;;;10.38;1.80;;;;;;;;;;4992510;28;20402;-43
2021/11/20 11:16:45;;;;;;;5.63;1.40;;;;;;;;;;4940660;28;20529;-42
2021/11/20 11:19:18;;;;;;;7.93;1.40;;;;;;;;;;4992605;28;20089;-41
2021/11/20 11:21:57;;;;;;;6.63;1.50;;;;;;;;;;4992576;28;20034;-41
2021/11/20 11:24:24;;;;;;;3.50;1.13;;;;;;;;;;4992722;28;20022;-43
2021/11/20 11:26:54;;;;;;;10.32;1.33;;;;;;;;;;4992577;28;20043;-42
2021/11/20 11:29:27;;;;;;;8.48;2.03;;;;;;;;;;4992581;28;20026;-45
2021/11/20 11:31:54;;;;;;;6.72;1.13;;;;;;;;;;4992458;28;20471;-41
2021/11/20 11:34:31;;;;;;;7.72;1.40;;;;;;;;;;4992161;28;20034;-44
2021/11/20 11:37:15;;;;;;;6.72;2.00;;;;;;;;;;4992411;28;20478;-41
2021/11/20 11:39:48;;;;;;;7.07;1.45;;;;;;;;;;4974923;28;20027;-44
2021/11/20 11:42:22;;;;;;;6.85;1.40;;;;;;;;;;4992271;28;20029;-44
2021/11/20 11:44:52;;;;;;;6.70;1.88;;;;;;;;;;4995195;28;20034;-43
2021/11/20 11:47:23;;;;;;;6.53;1.55;;;;;;;;;;4996057;28;20011;-43
2021/11/20 11:50:13;;;;;;;6.35;1.40;;;;;;;;;;4995944;28;20037;-41
2021/11/20 11:52:49;;;;;;;5.50;1.50;;;;;;;;;;4988067;28;20054;-42
2021/11/20 11:55:16;;;;;;;6.47;1.20;;;;;;;;;;4995799;28;20019;-45
2021/11/20 11:57:57;;;;;;;6.28;1.08;;;;;;;;;;4995571;28;20033;-43
2021/11/20 12:00:30;;;;;;;12.53;1.70;;;;;;;;;;4995813;28;20105;-44
2021/11/20 12:02:59;;;;;;;7.95;1.88;;;;;;;;;;4995591;28;20026;-44
2021/11/20 12:05:32;;;;;;;9.02;1.90;;;;;;;;;;4995198;28;20060;-44
2021/11/20 12:08:19;;;;;;;5.60;1.38;;;;;;;;;;4995321;28;20033;-43
2021/11/20 12:11:04;;;;;;;8.38;1.27;;;;;;;;;;4995479;28;20027;-42
2021/11/20 12:13:34;;;;;;;7.63;1.63;;;;;;;;;;4995671;28;20382;-44
2021/11/20 12:16:04;;;;;;;7.43;1.27;;;;;;;;;;4995246;28;20023;-41
2021/11/20 12:18:43;;;;;;;6.95;1.27;;;;;;;;;;4995516;28;20599;-43
2021/11/20 12:21:16;;;;;;;8.68;1.40;;;;;;;;;;4995532;28;20054;-45
2021/11/20 12:23:55;;;;;;;10.23;1.90;;;;;;;;;;4995203;28;20056;-43
2021/11/20 12:26:40;;;;;;;8.35;1.33;;;;;;;;;;4995358;28;20022;-43
2021/11/20 12:29:21;;;;;;;12.27;1.42;;;;;;;;;;4995092;28;20026;-43
2021/11/20 12:31:56;;;;;;;5.45;1.40;;;;;;;;;;4995036;28;20038;-43
2021/11/20 12:34:29;;;;;;;7.68;1.50;;;;;;;;;;4977615;28;20022;-40
2021/11/20 12:37:02;;;;;;;6.88;1.50;;;;;;;;;;4995253;28;20031;-41
2021/11/20 12:39:44;;;;;;;12.38;1.45;;;;;;;;;;4994958;28;20443;-47
2021/11/20 12:42:16;;;;;;;11.27;1.60;;;;;;;;;;4994882;28;20034;-42
2021/11/20 12:44:53;;;;;;;5.80;1.35;;;;;;;;;;4994834;28;20310;-44
2021/11/20 12:47:39;;;;;;;13.48;1.50;;;;;;;;;;4994773;28;20033;-44
2021/11/20 12:50:11;;;;;;;5.95;1.15;;;;;;;;;;4994542;28;20022;-44
2021/11/20 12:52:47;;;;;;;8.40;1.35;;;;;;;;;;4994633;28;20046;-43
2021/11/20 12:55:24;;;;;;;10.70;1.63;;;;;;;;;;4994655;28;20023;-44
2021/11/20 12:57:56;;;;;;;7.03;1.70;;;;;;;;;;4994603;28;20026;-41
2021/11/20 13:00:34;;;;;;;6.37;1.40;;;;;;;;;;4994582;28;20026;-40
2021/11/20 13:03:01;;;;;;;13.48;1.60;;;;;;;;;;4994210;28;20297;-40
2021/11/20 13:05:40;;;;;;;11.52;1.52;;;;;;;;;;4994292;28;20039;-44
2021/11/20 13:08:13;;;;;;;17.08;1.92;;;;;;;;;;4994649;28;20058;-41
2021/11/20 13:10:43;;;;;;;11.25;1.77;;;;;;;;;;4994267;28;20101;-42
2021/11/20 13:13:25;;;;;;;10.32;1.67;;;;;;;;;;4994049;28;20042;-43
2021/11/20 13:15:52;;;;;;;;;;;;;;;;;;4994638;28;20025;-41
2021/11/20 13:18:25;;;;;;;9.10;1.40;;;;;;;;;;4994200;28;19960;-44
2021/11/20 13:20:58;;;;;;;11.52;1.83;;;;;;;;;;4994361;28;20439;-42
2021/11/20 13:23:26;;;;;;;8.02;1.45;;;;;;;;;;4993874;28;20057;-42
2021/11/20 13:26:02;;;;;;;11.43;1.90;;;;;;;;;;4994192;28;20105;-41
2021/11/20 13:28:33;;;;;;;13.40;2.13;;;;;;;;;;4994045;28;20114;-44
2021/11/20 13:31:02;;;;;;;6.95;1.40;;;;;;;;;;4994308;28;20018;-42
2021/11/20 13:33:29;;;;;;;14.98;2.20;;;;;;;;;;4993581;28;20517;-43
2021/11/20 13:36:00;;;;;;;15.40;1.90;;;;;;;;;;4993715;28;20035;-41
2021/11/20 13:38:27;;;;;;;11.73;1.93;;;;;;;;;;5003592;28;20493;-42
2021/11/20 13:40:55;;;;;;;8.10;1.55;;;;;;;;;;5012902;28;20032;-41
2021/11/20 13:43:24;;;;;;;11.75;1.77;;;;;;;;;;5008796;28;20111;-41
2021/11/20 13:45:53;;;;;;;18.70;2.08;;;;;;;;;;5011192;28;20037;-42
2021/11/20 13:48:24;;;;;;;10.35;1.50;;;;;;;;;;5011134;28;20026;-42
2021/11/20 13:50:51;;;;;;;14.38;1.75;;;;;;;;;;5012712;28;20026;-41
2021/11/20 13:53:20;;;;;;;10.23;1.98;;;;;;;;;;5012396;28;20037;-43
2021/11/20 13:55:50;;;;;;;13.90;1.83;;;;;;;;;;5013131;28;20355;-45
2021/11/20 13:58:28;;;;;;;17.35;2.15;;;;;;;;;;5011282;28;20032;-41
2021/11/20 14:00:56;;;;;;;6.82;1.40;;;;;;;;;;5009166;28;20113;-41
2021/11/20 14:03:24;;;;;;;15.07;1.83;;;;;;;;;;5011889;28;20049;-45
2021/11/20 14:05:51;;;;;;;17.92;2.28;;;;;;;;;;5012442;28;20093;-41
2021/11/20 14:08:18;;;;;;;14.98;1.75;;;;;;;;;;5012573;28;20018;-43
2021/11/20 14:11:09;;;;;;;21.67;2.33;;;;;;;;;;5012256;28;20121;-42
2021/11/20 14:13:37;;;;;;;14.48;2.47;;;;;;;;;;5011384;28;20049;-44
2021/11/20 14:16:06;;;;;;;17.10;2.10;;;;;;;;;;5012497;28;20132;-42
2021/11/20 14:18:45;;;;;;;15.48;2.40;;;;;;;;;;5011762;28;20036;-46
2021/11/20 14:21:12;;;;;;;22.38;2.10;;;;;;;;;;5011964;28;20022;-42
2021/11/20 14:23:44;;;;;;;13.05;2.30;;;;;;;;;;5011446;28;20049;-41
2021/11/20 14:26:11;;;;;;;;;;;;;;;;;;5012205;28;20497;-42
2021/11/20 14:28:45;;;;;;;15.20;2.10;;;;;;;;;;5012073;28;19909;-42
2021/11/20 14:31:14;;;;;;;22.05;1.92;;;;;;;;;;5011740;28;20022;-41
2021/11/20 14:33:53;;;;;;;14.88;1.75;;;;;;;;;;5011906;28;20033;-43
2021/11/20 14:36:31;;;;;;;16.67;2.20;;;;;;;;;;5002419;28;20474;-40
2021/11/20 14:38:59;;;;;;;14.68;2.13;;;;;;;;;;4997398;28;20038;-42
2021/11/20 14:41:36;;;;;;;19.52;2.03;;;;;;;;;;5003249;28;20493;-40
2021/11/20 14:44:04;;;;;;;13.65;1.80;;;;;;;;;;5003977;28;20025;-40
2021/11/20 14:46:32;;;;;;;15.80;2.05;;;;;;;;;;5000450;28;20023;-40
2021/11/20 14:49:03;;;;;;;14.77;1.95;;;;;;;;;;5002979;28;20027;-40
2021/11/20 14:51:56;;;;;;;14.97;2.20;;;;;;;;;;5004657;28;20386;-40
2021/11/20 14:54:22;;;;;;;;;;;;;;;;;;4999754;28;20288;-41
2021/11/20 14:56:51;;;;;;;15.27;2.33;;;;;;;;;;4999761;28;19972;-40